sensor_id;sensor_type;location;lat;lon;timestamp;P1;durP1;ratioP1;P2;durP2;ratioP2
19623;SDS011;9959;49.798;9.928;2023-08-07T00:02:01;1.40;;;1.13;;
19623;SDS011;9959;49.798;9.928;2023-08-07T00:04:29;3.30;;;1.00;;
19623;SDS011;9959;49.798;9.928;2023-08-07T00:06:56;1.83;;;1.00;;
19623;SDS011;9959;49.798;9.928;2023-08-07T00:09:23;1.27;;;1.00;;
19623;SDS011;9959;49.798;9.928;2023-08-07T00:11:50;3.03;;;1.30;;
19623;SDS011;9959;49.798;9.928;2023-08-07T00:14:17;4.07;;;1.23;;
19623;SDS011;9959;49.798;9.928;2023-08-07T00:16:44;5.00;;;1.30;;
19623;SDS011;9959;49.798;9.928;2023-08-07T00:19:11;3.22;;;1.50;;
19623;SDS011;9959;49.798;9.928;2023-08-07T00:21:38;5.82;;;1.50;;
19623;SDS011;9959;49.798;9.928;2023-08-07T00:24:05;2.25;;;1.27;;
19623;SDS011;9959;49.798;9.928;2023-08-07T00:26:32;2.05;;;1.20;;
19623;SDS011;9959;49.798;9.928;2023-08-07T00:28:59;1.20;;;1.10;;
19623;SDS011;9959;49.798;9.928;2023-08-07T00:31:26;1.35;;;1.10;;
19623;SDS011;9959;49.798;9.928;2023-08-07T00:33:58;4.75;;;1.40;;
19623;SDS011;9959;49.798;9.928;2023-08-07T00:36:26;2.80;;;1.00;;
19623;SDS011;9959;49.798;9.928;2023-08-07T00:38:55;4.97;;;1.27;;
19623;SDS011;9959;49.798;9.928;2023-08-07T00:41:22;2.20;;;1.10;;
19623;SDS011;9959;49.798;9.928;2023-08-07T00:43:49;2.03;;;1.10;;
19623;SDS011;9959;49.798;9.928;2023-08-07T00:46:16;1.10;;;0.90;;
19623;SDS011;9959;49.798;9.928;2023-08-07T00:48:44;3.08;;;1.42;;
19623;SDS011;9959;49.798;9.928;2023-08-07T00:51:12;3.08;;;1.17;;
19623;SDS011;9959;49.798;9.928;2023-08-07T00:53:39;3.38;;;1.10;;
19623;SDS011;9959;49.798;9.928;2023-08-07T00:56:07;2.95;;;1.20;;
19623;SDS011;9959;49.798;9.928;2023-08-07T00:58:34;1.80;;;1.00;;
19623;SDS011;9959;49.798;9.928;2023-08-07T01:01:01;5.45;;;1.10;;
19623;SDS011;9959;49.798;9.928;2023-08-07T01:03:28;1.52;;;1.10;;
19623;SDS011;9959;49.798;9.928;2023-08-07T01:05:55;4.68;;;1.27;;
19623;SDS011;9959;49.798;9.928;2023-08-07T01:08:22;2.47;;;1.40;;
19623;SDS011;9959;49.798;9.928;2023-08-07T01:13:24;3.13;;;1.30;;
19623;SDS011;9959;49.798;9.928;2023-08-07T01:15:56;4.43;;;1.52;;
19623;SDS011;9959;49.798;9.928;2023-08-07T01:18:27;5.50;;;1.40;;
19623;SDS011;9959;49.798;9.928;2023-08-07T01:20:56;3.05;;;1.20;;
19623;SDS011;9959;49.798;9.928;2023-08-07T01:23:23;4.30;;;1.30;;
19623;SDS011;9959;49.798;9.928;2023-08-07T01:25:50;1.85;;;1.27;;
19623;SDS011;9959;49.798;9.928;2023-08-07T01:28:27;3.53;;;1.42;;
19623;SDS011;9959;49.798;9.928;2023-08-07T01:31:03;3.70;;;1.17;;
19623;SDS011;9959;49.798;9.928;2023-08-07T01:33:43;3.08;;;1.35;;
19623;SDS011;9959;49.798;9.928;2023-08-07T01:36:21;2.20;;;1.13;;
19623;SDS011;9959;49.798;9.928;2023-08-07T01:38:49;1.80;;;1.23;;
19623;SDS011;9959;49.798;9.928;2023-08-07T01:41:17;3.80;;;1.10;;
19623;SDS011;9959;49.798;9.928;2023-08-07T01:43:44;3.17;;;1.05;;
19623;SDS011;9959;49.798;9.928;2023-08-07T01:46:11;2.72;;;1.17;;
19623;SDS011;9959;49.798;9.928;2023-08-07T01:48:38;3.95;;;1.27;;
19623;SDS011;9959;49.798;9.928;2023-08-07T01:51:05;1.38;;;1.02;;
19623;SDS011;9959;49.798;9.928;2023-08-07T01:53:32;2.70;;;0.90;;
19623;SDS011;9959;49.798;9.928;2023-08-07T01:55:59;4.50;;;1.10;;
19623;SDS011;9959;49.798;9.928;2023-08-07T01:58:26;3.25;;;1.20;;
19623;SDS011;9959;49.798;9.928;2023-08-07T02:00:53;4.03;;;1.02;;
19623;SDS011;9959;49.798;9.928;2023-08-07T02:03:20;1.95;;;1.13;;
19623;SDS011;9959;49.798;9.928;2023-08-07T02:05:47;2.80;;;1.13;;
19623;SDS011;9959;49.798;9.928;2023-08-07T02:08:14;3.75;;;1.20;;
19623;SDS011;9959;49.798;9.928;2023-08-07T02:10:41;2.65;;;1.30;;
19623;SDS011;9959;49.798;9.928;2023-08-07T02:13:07;3.00;;;1.08;;
19623;SDS011;9959;49.798;9.928;2023-08-07T02:15:35;2.60;;;1.30;;
19623;SDS011;9959;49.798;9.928;2023-08-07T02:18:02;3.50;;;1.58;;
19623;SDS011;9959;49.798;9.928;2023-08-07T02:20:29;4.07;;;1.33;;
19623;SDS011;9959;49.798;9.928;2023-08-07T02:22:55;3.28;;;1.55;;
19623;SDS011;9959;49.798;9.928;2023-08-07T02:25:22;1.55;;;0.98;;
19623;SDS011;9959;49.798;9.928;2023-08-07T02:27:49;2.83;;;1.40;;
19623;SDS011;9959;49.798;9.928;2023-08-07T02:30:16;4.55;;;1.50;;
19623;SDS011;9959;49.798;9.928;2023-08-07T02:32:43;5.07;;;1.80;;
19623;SDS011;9959;49.798;9.928;2023-08-07T02:35:11;4.18;;;1.55;;
19623;SDS011;9959;49.798;9.928;2023-08-07T02:37:38;2.50;;;1.48;;
19623;SDS011;9959;49.798;9.928;2023-08-07T02:40:05;5.60;;;1.80;;
19623;SDS011;9959;49.798;9.928;2023-08-07T02:42:32;5.40;;;1.65;;
19623;SDS011;9959;49.798;9.928;2023-08-07T02:44:59;3.53;;;1.80;;
19623;SDS011;9959;49.798;9.928;2023-08-07T02:47:25;6.68;;;1.70;;
19623;SDS011;9959;49.798;9.928;2023-08-07T02:49:52;4.13;;;1.50;;
19623;SDS011;9959;49.798;9.928;2023-08-07T02:52:19;4.75;;;1.73;;
19623;SDS011;9959;49.798;9.928;2023-08-07T02:54:46;6.18;;;1.80;;
19623;SDS011;9959;49.798;9.928;2023-08-07T02:57:13;3.38;;;1.65;;
19623;SDS011;9959;49.798;9.928;2023-08-07T02:59:40;2.72;;;1.80;;
19623;SDS011;9959;49.798;9.928;2023-08-07T03:02:07;8.25;;;1.70;;
19623;SDS011;9959;49.798;9.928;2023-08-07T03:04:33;2.95;;;1.75;;
19623;SDS011;9959;49.798;9.928;2023-08-07T03:07:00;7.32;;;2.17;;
19623;SDS011;9959;49.798;9.928;2023-08-07T03:09:28;7.93;;;2.15;;
19623;SDS011;9959;49.798;9.928;2023-08-07T03:11:55;2.55;;;1.50;;
19623;SDS011;9959;49.798;9.928;2023-08-07T03:14:22;3.33;;;2.17;;
19623;SDS011;9959;49.798;9.928;2023-08-07T03:16:49;5.55;;;1.95;;
19623;SDS011;9959;49.798;9.928;2023-08-07T03:19:15;5.70;;;2.20;;
19623;SDS011;9959;49.798;9.928;2023-08-07T03:21:42;7.55;;;1.90;;
19623;SDS011;9959;49.798;9.928;2023-08-07T03:24:11;7.57;;;2.85;;
19623;SDS011;9959;49.798;9.928;2023-08-07T03:26:38;4.82;;;2.30;;
19623;SDS011;9959;49.798;9.928;2023-08-07T03:29:05;8.80;;;2.38;;
19623;SDS011;9959;49.798;9.928;2023-08-07T03:31:32;6.63;;;2.22;;
19623;SDS011;9959;49.798;9.928;2023-08-07T03:33:59;7.80;;;2.20;;
19623;SDS011;9959;49.798;9.928;2023-08-07T03:36:26;3.60;;;2.10;;
19623;SDS011;9959;49.798;9.928;2023-08-07T03:38:52;9.70;;;2.75;;
19623;SDS011;9959;49.798;9.928;2023-08-07T03:41:19;7.25;;;2.28;;
19623;SDS011;9959;49.798;9.928;2023-08-07T03:43:46;8.70;;;2.90;;
19623;SDS011;9959;49.798;9.928;2023-08-07T03:46:13;6.78;;;2.30;;
19623;SDS011;9959;49.798;9.928;2023-08-07T03:48:40;7.25;;;2.30;;
19623;SDS011;9959;49.798;9.928;2023-08-07T03:51:07;3.90;;;2.40;;
19623;SDS011;9959;49.798;9.928;2023-08-07T03:53:37;11.93;;;2.92;;
19623;SDS011;9959;49.798;9.928;2023-08-07T03:56:04;6.05;;;2.33;;
19623;SDS011;9959;49.798;9.928;2023-08-07T03:58:31;12.02;;;2.95;;
19623;SDS011;9959;49.798;9.928;2023-08-07T04:00:58;7.53;;;2.85;;
19623;SDS011;9959;49.798;9.928;2023-08-07T04:03:25;7.97;;;2.40;;
19623;SDS011;9959;49.798;9.928;2023-08-07T04:05:53;8.15;;;2.50;;
19623;SDS011;9959;49.798;9.928;2023-08-07T04:08:21;7.68;;;2.83;;
19623;SDS011;9959;49.798;9.928;2023-08-07T04:11:01;9.65;;;2.70;;
19623;SDS011;9959;49.798;9.928;2023-08-07T04:13:29;7.70;;;3.20;;
19623;SDS011;9959;49.798;9.928;2023-08-07T04:15:57;10.35;;;3.25;;
19623;SDS011;9959;49.798;9.928;2023-08-07T04:18:25;7.07;;;2.90;;
19623;SDS011;9959;49.798;9.928;2023-08-07T04:20:52;7.97;;;3.25;;
19623;SDS011;9959;49.798;9.928;2023-08-07T04:23:20;10.40;;;3.15;;
19623;SDS011;9959;49.798;9.928;2023-08-07T04:25:48;9.93;;;2.95;;
19623;SDS011;9959;49.798;9.928;2023-08-07T04:28:15;6.45;;;2.88;;
19623;SDS011;9959;49.798;9.928;2023-08-07T04:30:43;7.40;;;2.97;;
19623;SDS011;9959;49.798;9.928;2023-08-07T04:33:10;7.68;;;2.67;;
19623;SDS011;9959;49.798;9.928;2023-08-07T04:35:38;11.55;;;3.47;;
19623;SDS011;9959;49.798;9.928;2023-08-07T04:38:04;6.40;;;2.88;;
19623;SDS011;9959;49.798;9.928;2023-08-07T04:40:31;10.25;;;3.60;;
19623;SDS011;9959;49.798;9.928;2023-08-07T04:42:58;9.18;;;3.35;;
19623;SDS011;9959;49.798;9.928;2023-08-07T04:45:25;8.30;;;2.92;;
19623;SDS011;9959;49.798;9.928;2023-08-07T04:47:52;8.25;;;2.78;;
19623;SDS011;9959;49.798;9.928;2023-08-07T04:50:19;5.22;;;3.25;;
19623;SDS011;9959;49.798;9.928;2023-08-07T04:52:46;8.60;;;3.22;;
19623;SDS011;9959;49.798;9.928;2023-08-07T04:55:12;13.60;;;3.15;;
19623;SDS011;9959;49.798;9.928;2023-08-07T04:57:40;7.53;;;2.67;;
19623;SDS011;9959;49.798;9.928;2023-08-07T05:00:07;7.30;;;3.60;;
19623;SDS011;9959;49.798;9.928;2023-08-07T05:02:34;8.35;;;3.05;;
19623;SDS011;9959;49.798;9.928;2023-08-07T05:05:01;7.95;;;2.80;;
19623;SDS011;9959;49.798;9.928;2023-08-07T05:07:28;5.82;;;2.88;;
19623;SDS011;9959;49.798;9.928;2023-08-07T05:09:55;5.97;;;2.88;;
19623;SDS011;9959;49.798;9.928;2023-08-07T05:12:22;7.10;;;2.83;;
19623;SDS011;9959;49.798;9.928;2023-08-07T05:14:49;11.18;;;3.08;;
19623;SDS011;9959;49.798;9.928;2023-08-07T05:17:16;8.80;;;3.00;;
19623;SDS011;9959;49.798;9.928;2023-08-07T05:19:42;6.00;;;2.83;;
19623;SDS011;9959;49.798;9.928;2023-08-07T05:22:09;9.73;;;3.42;;
19623;SDS011;9959;49.798;9.928;2023-08-07T05:24:36;9.75;;;3.80;;
19623;SDS011;9959;49.798;9.928;2023-08-07T05:27:08;7.90;;;3.60;;
19623;SDS011;9959;49.798;9.928;2023-08-07T05:29:35;7.07;;;2.97;;
19623;SDS011;9959;49.798;9.928;2023-08-07T05:32:12;6.70;;;2.90;;
19623;SDS011;9959;49.798;9.928;2023-08-07T05:34:40;6.68;;;2.85;;
19623;SDS011;9959;49.798;9.928;2023-08-07T05:37:08;9.98;;;3.25;;
19623;SDS011;9959;49.798;9.928;2023-08-07T05:39:35;11.98;;;3.38;;
19623;SDS011;9959;49.798;9.928;2023-08-07T05:42:02;6.18;;;2.80;;
19623;SDS011;9959;49.798;9.928;2023-08-07T05:44:29;10.38;;;2.63;;
19623;SDS011;9959;49.798;9.928;2023-08-07T05:46:56;10.63;;;3.40;;
19623;SDS011;9959;49.798;9.928;2023-08-07T05:49:23;6.60;;;2.40;;
19623;SDS011;9959;49.798;9.928;2023-08-07T05:51:52;7.35;;;3.10;;
19623;SDS011;9959;49.798;9.928;2023-08-07T05:54:20;10.25;;;2.90;;
19623;SDS011;9959;49.798;9.928;2023-08-07T05:56:47;6.90;;;2.95;;
19623;SDS011;9959;49.798;9.928;2023-08-07T05:59:14;8.60;;;2.55;;
19623;SDS011;9959;49.798;9.928;2023-08-07T06:01:41;11.05;;;2.90;;
19623;SDS011;9959;49.798;9.928;2023-08-07T06:04:08;7.38;;;3.33;;
19623;SDS011;9959;49.798;9.928;2023-08-07T06:06:36;7.50;;;2.70;;
19623;SDS011;9959;49.798;9.928;2023-08-07T06:09:06;7.35;;;2.90;;
19623;SDS011;9959;49.798;9.928;2023-08-07T06:11:33;10.93;;;3.30;;
19623;SDS011;9959;49.798;9.928;2023-08-07T06:14:00;10.45;;;3.00;;
19623;SDS011;9959;49.798;9.928;2023-08-07T06:16:27;7.55;;;3.05;;
19623;SDS011;9959;49.798;9.928;2023-08-07T06:18:54;8.35;;;3.03;;
19623;SDS011;9959;49.798;9.928;2023-08-07T06:21:21;7.75;;;3.05;;
19623;SDS011;9959;49.798;9.928;2023-08-07T06:23:48;6.43;;;2.88;;
19623;SDS011;9959;49.798;9.928;2023-08-07T06:26:15;6.00;;;2.60;;
19623;SDS011;9959;49.798;9.928;2023-08-07T06:28:42;9.23;;;2.85;;
19623;SDS011;9959;49.798;9.928;2023-08-07T06:31:10;8.63;;;3.72;;
19623;SDS011;9959;49.798;9.928;2023-08-07T06:33:38;5.63;;;2.70;;
19623;SDS011;9959;49.798;9.928;2023-08-07T06:36:05;10.68;;;2.55;;
19623;SDS011;9959;49.798;9.928;2023-08-07T06:38:33;7.45;;;2.80;;
19623;SDS011;9959;49.798;9.928;2023-08-07T06:41:00;8.27;;;2.90;;
19623;SDS011;9959;49.798;9.928;2023-08-07T06:43:27;6.28;;;2.50;;
19623;SDS011;9959;49.798;9.928;2023-08-07T06:45:55;9.48;;;2.50;;
19623;SDS011;9959;49.798;9.928;2023-08-07T06:48:23;7.53;;;2.92;;
19623;SDS011;9959;49.798;9.928;2023-08-07T06:50:50;4.32;;;2.03;;
19623;SDS011;9959;49.798;9.928;2023-08-07T06:53:17;8.00;;;2.88;;
19623;SDS011;9959;49.798;9.928;2023-08-07T06:55:46;10.35;;;2.95;;
19623;SDS011;9959;49.798;9.928;2023-08-07T06:58:13;10.27;;;2.80;;
19623;SDS011;9959;49.798;9.928;2023-08-07T07:00:40;5.20;;;2.20;;
19623;SDS011;9959;49.798;9.928;2023-08-07T07:03:07;7.55;;;2.13;;
19623;SDS011;9959;49.798;9.928;2023-08-07T07:05:36;10.23;;;2.90;;
19623;SDS011;9959;49.798;9.928;2023-08-07T07:08:03;7.30;;;2.35;;
19623;SDS011;9959;49.798;9.928;2023-08-07T07:10:30;5.90;;;2.20;;
19623;SDS011;9959;49.798;9.928;2023-08-07T07:12:58;6.90;;;2.92;;
19623;SDS011;9959;49.798;9.928;2023-08-07T07:15:26;11.82;;;2.67;;
19623;SDS011;9959;49.798;9.928;2023-08-07T07:17:52;9.18;;;2.40;;
19623;SDS011;9959;49.798;9.928;2023-08-07T07:20:20;8.93;;;2.95;;
19623;SDS011;9959;49.798;9.928;2023-08-07T07:22:46;9.48;;;2.55;;
19623;SDS011;9959;49.798;9.928;2023-08-07T07:25:14;9.10;;;2.72;;
19623;SDS011;9959;49.798;9.928;2023-08-07T07:27:40;6.20;;;2.70;;
19623;SDS011;9959;49.798;9.928;2023-08-07T07:30:08;7.45;;;2.63;;
19623;SDS011;9959;49.798;9.928;2023-08-07T07:32:35;8.02;;;2.50;;
19623;SDS011;9959;49.798;9.928;2023-08-07T07:35:02;9.13;;;2.33;;
19623;SDS011;9959;49.798;9.928;2023-08-07T07:37:30;7.47;;;2.60;;
19623;SDS011;9959;49.798;9.928;2023-08-07T07:39:58;8.20;;;2.63;;
19623;SDS011;9959;49.798;9.928;2023-08-07T07:42:24;9.70;;;2.47;;
19623;SDS011;9959;49.798;9.928;2023-08-07T07:44:51;8.10;;;2.40;;
19623;SDS011;9959;49.798;9.928;2023-08-07T07:47:18;9.38;;;2.83;;
19623;SDS011;9959;49.798;9.928;2023-08-07T07:49:46;5.43;;;2.30;;
19623;SDS011;9959;49.798;9.928;2023-08-07T07:52:16;12.68;;;3.00;;
19623;SDS011;9959;49.798;9.928;2023-08-07T07:54:43;6.88;;;2.42;;
19623;SDS011;9959;49.798;9.928;2023-08-07T07:57:09;4.10;;;2.28;;
19623;SDS011;9959;49.798;9.928;2023-08-07T07:59:37;7.45;;;2.65;;
19623;SDS011;9959;49.798;9.928;2023-08-07T08:02:04;4.53;;;2.20;;
19623;SDS011;9959;49.798;9.928;2023-08-07T08:04:31;8.23;;;2.53;;
19623;SDS011;9959;49.798;9.928;2023-08-07T08:06:58;8.07;;;2.50;;
19623;SDS011;9959;49.798;9.928;2023-08-07T08:09:26;3.60;;;2.00;;
19623;SDS011;9959;49.798;9.928;2023-08-07T08:11:53;4.93;;;2.00;;
19623;SDS011;9959;49.798;9.928;2023-08-07T08:14:20;11.20;;;2.97;;
19623;SDS011;9959;49.798;9.928;2023-08-07T08:16:47;3.05;;;2.00;;
19623;SDS011;9959;49.798;9.928;2023-08-07T08:19:13;3.90;;;1.90;;
19623;SDS011;9959;49.798;9.928;2023-08-07T08:21:42;4.72;;;2.10;;
19623;SDS011;9959;49.798;9.928;2023-08-07T08:24:09;3.75;;;1.67;;
19623;SDS011;9959;49.798;9.928;2023-08-07T08:26:36;3.70;;;1.90;;
19623;SDS011;9959;49.798;9.928;2023-08-07T08:29:05;5.07;;;2.00;;
19623;SDS011;9959;49.798;9.928;2023-08-07T08:31:32;3.47;;;2.25;;
19623;SDS011;9959;49.798;9.928;2023-08-07T08:33:59;7.57;;;2.40;;
19623;SDS011;9959;49.798;9.928;2023-08-07T08:36:26;3.40;;;1.60;;
19623;SDS011;9959;49.798;9.928;2023-08-07T08:38:53;3.65;;;2.00;;
19623;SDS011;9959;49.798;9.928;2023-08-07T08:41:20;4.85;;;1.80;;
19623;SDS011;9959;49.798;9.928;2023-08-07T08:43:47;2.90;;;1.77;;
19623;SDS011;9959;49.798;9.928;2023-08-07T08:46:19;9.38;;;1.90;;
19623;SDS011;9959;49.798;9.928;2023-08-07T08:48:50;5.53;;;1.80;;
19623;SDS011;9959;49.798;9.928;2023-08-07T08:51:19;8.75;;;2.42;;
19623;SDS011;9959;49.798;9.928;2023-08-07T08:53:48;5.47;;;2.40;;
19623;SDS011;9959;49.798;9.928;2023-08-07T08:56:16;6.78;;;2.13;;
19623;SDS011;9959;49.798;9.928;2023-08-07T08:58:43;3.78;;;1.80;;
19623;SDS011;9959;49.798;9.928;2023-08-07T09:01:10;5.68;;;2.30;;
19623;SDS011;9959;49.798;9.928;2023-08-07T09:03:39;6.78;;;2.03;;
19623;SDS011;9959;49.798;9.928;2023-08-07T09:06:06;7.97;;;2.72;;
19623;SDS011;9959;49.798;9.928;2023-08-07T09:08:33;6.10;;;2.53;;
19623;SDS011;9959;49.798;9.928;2023-08-07T09:11:01;10.93;;;2.83;;
19623;SDS011;9959;49.798;9.928;2023-08-07T09:13:29;8.63;;;2.28;;
19623;SDS011;9959;49.798;9.928;2023-08-07T09:15:59;4.22;;;1.85;;
19623;SDS011;9959;49.798;9.928;2023-08-07T09:18:28;6.50;;;2.40;;
19623;SDS011;9959;49.798;9.928;2023-08-07T09:20:55;6.25;;;3.20;;
19623;SDS011;9959;49.798;9.928;2023-08-07T09:23:24;4.00;;;2.22;;
19623;SDS011;9959;49.798;9.928;2023-08-07T09:26:00;8.90;;;2.38;;
19623;SDS011;9959;49.798;9.928;2023-08-07T09:28:31;6.25;;;2.28;;
19623;SDS011;9959;49.798;9.928;2023-08-07T09:30:59;6.25;;;2.13;;
19623;SDS011;9959;49.798;9.928;2023-08-07T09:33:29;7.30;;;2.45;;
19623;SDS011;9959;49.798;9.928;2023-08-07T09:36:00;6.07;;;2.33;;
19623;SDS011;9959;49.798;9.928;2023-08-07T09:38:28;5.82;;;2.25;;
19623;SDS011;9959;49.798;9.928;2023-08-07T09:40:59;6.38;;;2.42;;
19623;SDS011;9959;49.798;9.928;2023-08-07T09:43:27;5.75;;;2.30;;
19623;SDS011;9959;49.798;9.928;2023-08-07T09:46:04;6.97;;;2.67;;
19623;SDS011;9959;49.798;9.928;2023-08-07T09:48:32;5.32;;;2.30;;
19623;SDS011;9959;49.798;9.928;2023-08-07T09:51:06;7.95;;;2.40;;
19623;SDS011;9959;49.798;9.928;2023-08-07T09:53:33;7.68;;;2.30;;
19623;SDS011;9959;49.798;9.928;2023-08-07T09:56:01;5.57;;;2.15;;
19623;SDS011;9959;49.798;9.928;2023-08-07T09:58:28;4.28;;;1.95;;
19623;SDS011;9959;49.798;9.928;2023-08-07T10:00:58;7.68;;;2.50;;
19623;SDS011;9959;49.798;9.928;2023-08-07T10:03:26;6.85;;;2.45;;
19623;SDS011;9959;49.798;9.928;2023-08-07T10:05:54;4.70;;;2.17;;
19623;SDS011;9959;49.798;9.928;2023-08-07T10:08:21;6.78;;;2.20;;
19623;SDS011;9959;49.798;9.928;2023-08-07T10:10:49;4.70;;;2.08;;
19623;SDS011;9959;49.798;9.928;2023-08-07T10:13:16;5.43;;;2.30;;
19623;SDS011;9959;49.798;9.928;2023-08-07T10:15:48;3.30;;;1.90;;
19623;SDS011;9959;49.798;9.928;2023-08-07T10:18:16;7.75;;;2.47;;
19623;SDS011;9959;49.798;9.928;2023-08-07T10:20:43;10.45;;;2.22;;
19623;SDS011;9959;49.798;9.928;2023-08-07T10:23:11;4.00;;;2.20;;
19623;SDS011;9959;49.798;9.928;2023-08-07T10:25:42;4.70;;;2.20;;
19623;SDS011;9959;49.798;9.928;2023-08-07T10:28:14;10.00;;;2.05;;
19623;SDS011;9959;49.798;9.928;2023-08-07T10:30:44;3.25;;;2.08;;
19623;SDS011;9959;49.798;9.928;2023-08-07T10:33:11;5.45;;;2.10;;
19623;SDS011;9959;49.798;9.928;2023-08-07T10:35:44;3.25;;;1.75;;
19623;SDS011;9959;49.798;9.928;2023-08-07T10:38:15;5.53;;;1.60;;
19623;SDS011;9959;49.798;9.928;2023-08-07T10:41:02;5.82;;;1.92;;
19623;SDS011;9959;49.798;9.928;2023-08-07T10:43:37;2.90;;;1.55;;
19623;SDS011;9959;49.798;9.928;2023-08-07T10:46:15;4.18;;;1.85;;
19623;SDS011;9959;49.798;9.928;2023-08-07T10:51:13;4.75;;;2.25;;
19623;SDS011;9959;49.798;9.928;2023-08-07T10:53:48;3.10;;;1.70;;
19623;SDS011;9959;49.798;9.928;2023-08-07T10:56:30;4.00;;;2.10;;
19623;SDS011;9959;49.798;9.928;2023-08-07T10:59:09;4.47;;;1.90;;
19623;SDS011;9959;49.798;9.928;2023-08-07T11:04:07;5.50;;;1.70;;
19623;SDS011;9959;49.798;9.928;2023-08-07T11:06:35;3.30;;;2.03;;
19623;SDS011;9959;49.798;9.928;2023-08-07T11:09:04;7.53;;;2.50;;
19623;SDS011;9959;49.798;9.928;2023-08-07T11:11:40;6.88;;;2.38;;
19623;SDS011;9959;49.798;9.928;2023-08-07T11:14:13;5.05;;;2.28;;
19623;SDS011;9959;49.798;9.928;2023-08-07T11:16:42;3.70;;;1.85;;
19623;SDS011;9959;49.798;9.928;2023-08-07T11:19:11;6.32;;;2.20;;
19623;SDS011;9959;49.798;9.928;2023-08-07T11:21:41;4.05;;;2.00;;
19623;SDS011;9959;49.798;9.928;2023-08-07T11:24:12;4.00;;;1.70;;
19623;SDS011;9959;49.798;9.928;2023-08-07T11:26:41;4.32;;;2.15;;
19623;SDS011;9959;49.798;9.928;2023-08-07T11:29:09;4.10;;;2.05;;
19623;SDS011;9959;49.798;9.928;2023-08-07T11:31:36;4.00;;;2.10;;
19623;SDS011;9959;49.798;9.928;2023-08-07T11:34:03;3.25;;;2.20;;
19623;SDS011;9959;49.798;9.928;2023-08-07T11:36:30;5.95;;;1.92;;
19623;SDS011;9959;49.798;9.928;2023-08-07T11:38:58;5.47;;;1.88;;
19623;SDS011;9959;49.798;9.928;2023-08-07T11:41:25;3.45;;;1.80;;
19623;SDS011;9959;49.798;9.928;2023-08-07T11:43:51;4.93;;;2.15;;
19623;SDS011;9959;49.798;9.928;2023-08-07T11:46:18;5.82;;;1.90;;
19623;SDS011;9959;49.798;9.928;2023-08-07T11:48:45;2.78;;;1.73;;
19623;SDS011;9959;49.798;9.928;2023-08-07T11:51:12;3.08;;;1.90;;
19623;SDS011;9959;49.798;9.928;2023-08-07T11:53:40;4.60;;;2.25;;
19623;SDS011;9959;49.798;9.928;2023-08-07T11:56:12;3.90;;;1.77;;
19623;SDS011;9959;49.798;9.928;2023-08-07T11:58:42;8.05;;;1.77;;
19623;SDS011;9959;49.798;9.928;2023-08-07T12:01:16;3.67;;;1.80;;
19623;SDS011;9959;49.798;9.928;2023-08-07T12:03:52;6.85;;;2.38;;
19623;SDS011;9959;49.798;9.928;2023-08-07T12:06:22;3.10;;;1.85;;
19623;SDS011;9959;49.798;9.928;2023-08-07T12:08:50;2.65;;;1.70;;
19623;SDS011;9959;49.798;9.928;2023-08-07T12:11:21;3.80;;;1.70;;
19623;SDS011;9959;49.798;9.928;2023-08-07T12:13:48;4.95;;;1.75;;
19623;SDS011;9959;49.798;9.928;2023-08-07T12:16:16;2.65;;;1.73;;
19623;SDS011;9959;49.798;9.928;2023-08-07T12:18:44;3.60;;;1.75;;
19623;SDS011;9959;49.798;9.928;2023-08-07T12:21:15;4.57;;;2.00;;
19623;SDS011;9959;49.798;9.928;2023-08-07T12:23:45;4.78;;;2.10;;
19623;SDS011;9959;49.798;9.928;2023-08-07T12:26:14;4.07;;;1.92;;
19623;SDS011;9959;49.798;9.928;2023-08-07T12:28:41;4.20;;;1.60;;
19623;SDS011;9959;49.798;9.928;2023-08-07T12:31:08;4.18;;;1.95;;
19623;SDS011;9959;49.798;9.928;2023-08-07T12:33:36;4.22;;;1.92;;
19623;SDS011;9959;49.798;9.928;2023-08-07T12:36:03;3.13;;;1.60;;
19623;SDS011;9959;49.798;9.928;2023-08-07T12:38:30;4.68;;;1.45;;
19623;SDS011;9959;49.798;9.928;2023-08-07T12:40:57;4.85;;;1.67;;
19623;SDS011;9959;49.798;9.928;2023-08-07T12:43:24;2.75;;;1.75;;
19623;SDS011;9959;49.798;9.928;2023-08-07T12:45:52;3.38;;;1.90;;
19623;SDS011;9959;49.798;9.928;2023-08-07T12:48:39;3.25;;;1.85;;
19623;SDS011;9959;49.798;9.928;2023-08-07T12:51:06;3.72;;;2.17;;
19623;SDS011;9959;49.798;9.928;2023-08-07T12:53:33;3.92;;;1.70;;
19623;SDS011;9959;49.798;9.928;2023-08-07T12:56:00;3.75;;;2.00;;
19623;SDS011;9959;49.798;9.928;2023-08-07T12:58:27;4.60;;;1.60;;
19623;SDS011;9959;49.798;9.928;2023-08-07T13:00:56;4.35;;;2.10;;
19623;SDS011;9959;49.798;9.928;2023-08-07T13:03:23;4.07;;;1.77;;
19623;SDS011;9959;49.798;9.928;2023-08-07T13:05:50;5.93;;;2.30;;
19623;SDS011;9959;49.798;9.928;2023-08-07T13:08:17;4.43;;;1.95;;
19623;SDS011;9959;49.798;9.928;2023-08-07T13:10:44;7.80;;;2.22;;
19623;SDS011;9959;49.798;9.928;2023-08-07T13:13:15;3.17;;;2.28;;
19623;SDS011;9959;49.798;9.928;2023-08-07T13:15:42;2.20;;;1.45;;
19623;SDS011;9959;49.798;9.928;2023-08-07T13:18:08;6.05;;;2.17;;
19623;SDS011;9959;49.798;9.928;2023-08-07T13:20:35;3.50;;;2.10;;
19623;SDS011;9959;49.798;9.928;2023-08-07T13:23:02;9.85;;;2.75;;
19623;SDS011;9959;49.798;9.928;2023-08-07T13:25:33;4.10;;;2.10;;
19623;SDS011;9959;49.798;9.928;2023-08-07T13:28:00;2.17;;;1.50;;
19623;SDS011;9959;49.798;9.928;2023-08-07T13:30:27;8.27;;;2.65;;
19623;SDS011;9959;49.798;9.928;2023-08-07T13:33:01;5.88;;;2.53;;
19623;SDS011;9959;49.798;9.928;2023-08-07T13:35:28;6.47;;;2.75;;
19623;SDS011;9959;49.798;9.928;2023-08-07T13:37:56;6.20;;;2.33;;
19623;SDS011;9959;49.798;9.928;2023-08-07T13:40:22;4.43;;;2.00;;
19623;SDS011;9959;49.798;9.928;2023-08-07T13:42:49;5.20;;;2.22;;
19623;SDS011;9959;49.798;9.928;2023-08-07T13:45:16;4.03;;;2.50;;
19623;SDS011;9959;49.798;9.928;2023-08-07T13:47:43;5.60;;;2.65;;
19623;SDS011;9959;49.798;9.928;2023-08-07T13:50:10;7.50;;;2.20;;
19623;SDS011;9959;49.798;9.928;2023-08-07T13:52:39;6.68;;;2.10;;
19623;SDS011;9959;49.798;9.928;2023-08-07T13:55:06;5.47;;;2.00;;
19623;SDS011;9959;49.798;9.928;2023-08-07T13:57:36;7.43;;;2.10;;
19623;SDS011;9959;49.798;9.928;2023-08-07T14:00:03;7.18;;;2.30;;
19623;SDS011;9959;49.798;9.928;2023-08-07T14:02:30;6.32;;;2.33;;
19623;SDS011;9959;49.798;9.928;2023-08-07T14:04:59;8.25;;;2.38;;
19623;SDS011;9959;49.798;9.928;2023-08-07T14:07:26;6.80;;;2.53;;
19623;SDS011;9959;49.798;9.928;2023-08-07T14:09:53;4.68;;;2.25;;
19623;SDS011;9959;49.798;9.928;2023-08-07T14:12:20;6.00;;;2.22;;
19623;SDS011;9959;49.798;9.928;2023-08-07T14:14:47;5.32;;;2.15;;
19623;SDS011;9959;49.798;9.928;2023-08-07T14:17:14;7.40;;;2.22;;
19623;SDS011;9959;49.798;9.928;2023-08-07T14:19:41;7.07;;;3.08;;
19623;SDS011;9959;49.798;9.928;2023-08-07T14:22:07;5.53;;;2.28;;
19623;SDS011;9959;49.798;9.928;2023-08-07T14:24:34;5.38;;;2.30;;
19623;SDS011;9959;49.798;9.928;2023-08-07T14:27:01;4.07;;;2.30;;
19623;SDS011;9959;49.798;9.928;2023-08-07T14:29:28;4.25;;;2.03;;
19623;SDS011;9959;49.798;9.928;2023-08-07T14:31:55;5.07;;;1.98;;
19623;SDS011;9959;49.798;9.928;2023-08-07T14:34:22;5.05;;;2.05;;
19623;SDS011;9959;49.798;9.928;2023-08-07T14:36:49;4.43;;;2.03;;
19623;SDS011;9959;49.798;9.928;2023-08-07T14:39:17;7.30;;;2.05;;
19623;SDS011;9959;49.798;9.928;2023-08-07T14:41:43;4.43;;;2.20;;
19623;SDS011;9959;49.798;9.928;2023-08-07T14:44:11;5.78;;;2.38;;
19623;SDS011;9959;49.798;9.928;2023-08-07T14:46:37;4.43;;;2.28;;
19623;SDS011;9959;49.798;9.928;2023-08-07T14:49:05;6.72;;;2.15;;
19623;SDS011;9959;49.798;9.928;2023-08-07T14:51:31;5.20;;;1.88;;
19623;SDS011;9959;49.798;9.928;2023-08-07T14:53:58;3.15;;;1.75;;
19623;SDS011;9959;49.798;9.928;2023-08-07T14:56:25;5.18;;;2.03;;
19623;SDS011;9959;49.798;9.928;2023-08-07T14:58:52;5.55;;;2.00;;
19623;SDS011;9959;49.798;9.928;2023-08-07T15:01:19;4.35;;;2.30;;
19623;SDS011;9959;49.798;9.928;2023-08-07T15:03:46;4.03;;;1.92;;
19623;SDS011;9959;49.798;9.928;2023-08-07T15:06:13;2.85;;;1.88;;
19623;SDS011;9959;49.798;9.928;2023-08-07T15:08:41;3.83;;;2.00;;
19623;SDS011;9959;49.798;9.928;2023-08-07T15:11:08;4.28;;;2.30;;
19623;SDS011;9959;49.798;9.928;2023-08-07T15:13:34;8.60;;;3.30;;